KAPG

Phillips AAF Airport

Aberdeen Proving Grounds(Aberdeen), Maryland, USA
METAR KAPG 222058Z AUTO 14003KT 10SM CLR 17/M01 A3035 RMK AO2 SLP281 T01711011 57016 $
Observed Flight Rules
Apr-22 @ 20:58 UTC (53 minutes ago) Visual Flight Rules
Wind Visibility Clouds
140° at 3 knots 10 miles
  • Clear skies
Temperatures Readings
Current 17°C / 63°F
Dewpoint -1°C / 30°F
Humidity 30%
Altimeter 30.35" Hg
Pressure 1028.1 hPa
Elevation 18
METAR KAPG 222058Z AUTO 14003KT 10SM CLR 17/M01 A3035 RMK AO2 SLP281 T01711011 57016 $
Observed Flight Rules
Apr-22 @ 20:58 UTC
(53 minutes ago)
VFR
Wind Visibility
140° at 3 knots 10 miles
Clouds
  • Clear skies
Temperature Dewpoint
17°C / 63°F -1°C / 30°F
Humidity Altimeter Pressure
30% 30.35" Hg 1028.1 hPa